createdAt,value
2023-02-18T00:01:39.723Z,62.86
2023-02-18T00:04:07.988Z,63.29
2023-02-18T00:06:37.630Z,63.33
2023-02-18T00:09:06.845Z,63.29
2023-02-18T00:11:36.376Z,62.95
2023-02-18T00:14:07.430Z,63.04
2023-02-18T00:16:37.167Z,63.05
2023-02-18T00:19:07.193Z,62.22
2023-02-18T00:21:36.929Z,62.83
2023-02-18T00:24:06.799Z,62.56
2023-02-18T00:26:35.198Z,63.14
2023-02-18T00:29:04.660Z,63.33
2023-02-18T00:31:35.510Z,63.96
2023-02-18T00:34:06.541Z,63.87
2023-02-18T00:36:36.155Z,64.01
2023-02-18T00:39:07.478Z,64.67
2023-02-18T00:41:36.569Z,64.38
2023-02-18T00:44:05.346Z,64.65
2023-02-18T00:46:34.195Z,64.93
2023-02-18T00:49:02.526Z,65.02
2023-02-18T00:51:32.872Z,65.15
2023-02-18T00:54:01.288Z,64.74
2023-02-18T00:56:30.080Z,64.83
2023-02-18T00:58:58.010Z,64.37
2023-02-18T01:01:26.306Z,64.12
2023-02-18T01:03:54.740Z,63.93
2023-02-18T01:06:23.326Z,64.60
2023-02-18T01:08:52.841Z,64.63
2023-02-18T01:11:21.523Z,64.46
2023-02-18T01:13:49.997Z,64.68
2023-02-18T01:16:18.165Z,65.02
2023-02-18T01:18:47.482Z,65.02
2023-02-18T01:21:15.815Z,64.46
2023-02-18T01:23:44.066Z,64.32
2023-02-18T01:26:13.567Z,64.30
2023-02-18T01:28:42.494Z,64.44
2023-02-18T01:31:12.988Z,64.87
2023-02-18T01:33:41.526Z,64.96
2023-02-18T01:36:11.097Z,65.17
2023-02-18T01:38:40.185Z,64.71
2023-02-18T01:41:08.718Z,65.40
2023-02-18T01:43:39.049Z,65.23
2023-02-18T01:46:14.609Z,65.46
2023-02-18T01:48:50.639Z,65.40
2023-02-18T01:51:23.706Z,65.15
2023-02-18T01:53:57.336Z,65.67
2023-02-18T01:56:26.952Z,65.23
2023-02-18T01:59:00.618Z,65.80
2023-02-18T02:01:29.192Z,65.82
2023-02-18T02:03:57.119Z,65.49
2023-02-18T02:06:26.340Z,65.32
2023-02-18T02:08:59.354Z,65.65
2023-02-18T02:11:51.246Z,66.09
2023-02-18T02:14:36.949Z,65.78
2023-02-18T02:17:09.724Z,65.05
2023-02-18T02:20:12.342Z,65.30
2023-02-18T02:23:11.602Z,64.96
2023-02-18T02:26:08.992Z,64.96
2023-02-18T02:29:15.261Z,65.42
2023-02-18T02:32:22.294Z,65.93
2023-02-18T02:34:56.286Z,65.53
2023-02-18T02:37:33.271Z,65.57
2023-02-18T02:40:09.354Z,65.18
2023-02-18T02:42:48.071Z,65.36
2023-02-18T02:45:25.463Z,65.24
2023-02-18T02:48:01.336Z,65.48
2023-02-18T02:50:37.749Z,65.41
2023-02-18T02:53:12.471Z,65.62
2023-02-18T02:55:41.538Z,65.35
2023-02-18T02:58:15.546Z,65.55
2023-02-18T03:00:54.679Z,65.02
2023-02-18T03:03:44.989Z,65.72
2023-02-18T03:06:56.134Z,65.64
2023-02-18T03:09:36.237Z,65.79
2023-02-18T03:12:11.367Z,66.34
2023-02-18T03:14:48.497Z,66.79
2023-02-18T03:17:24.391Z,67.26
2023-02-18T03:19:58.563Z,68.05
2023-02-18T03:22:32.463Z,67.64
2023-02-18T03:25:05.196Z,68.31
2023-02-18T03:27:35.527Z,68.07
2023-02-18T03:30:08.912Z,68.09
2023-02-18T03:32:37.542Z,67.93
2023-02-18T03:35:11.688Z,68.28
2023-02-18T03:37:48.415Z,67.67
2023-02-18T03:40:18.542Z,68.28
2023-02-18T03:42:46.839Z,67.63
2023-02-18T03:45:15.022Z,67.97
2023-02-18T03:47:43.487Z,68.62
2023-02-18T03:50:11.965Z,68.61
2023-02-18T03:52:40.061Z,68.51
2023-02-18T03:55:10.353Z,68.47
2023-02-18T03:57:38.733Z,69.03
2023-02-18T04:00:08.041Z,68.48
2023-02-18T04:02:44.586Z,68.17
2023-02-18T04:05:13.569Z,69.30
2023-02-18T04:07:41.905Z,69.41
2023-02-18T04:10:13.335Z,69.77
2023-02-18T04:12:41.534Z,69.85
2023-02-18T04:15:10.565Z,69.57
2023-02-18T04:17:38.617Z,69.74
2023-02-18T04:20:08.330Z,69.49
2023-02-18T04:22:36.256Z,70.01
2023-02-18T04:25:04.612Z,71.19
2023-02-18T04:27:34.130Z,71.90
2023-02-18T04:30:02.490Z,72.06
2023-02-18T04:32:30.629Z,73.17
2023-02-18T04:34:58.692Z,72.88
2023-02-18T04:37:26.795Z,73.13
2023-02-18T04:39:55.186Z,73.15
2023-02-18T04:42:23.145Z,73.10
2023-02-18T04:44:52.562Z,72.66
2023-02-18T04:47:20.630Z,72.76
2023-02-18T04:49:48.871Z,73.35
2023-02-18T04:52:16.904Z,73.25
2023-02-18T04:54:44.963Z,73.51
2023-02-18T04:57:13.516Z,73.72
2023-02-18T04:59:41.818Z,73.46
2023-02-18T05:02:11.456Z,73.94
2023-02-18T05:04:39.502Z,74.59
2023-02-18T05:07:07.482Z,74.60
2023-02-18T05:09:35.433Z,74.71
2023-02-18T05:12:03.600Z,75.19
2023-02-18T05:14:31.597Z,75.89
2023-02-18T05:16:59.673Z,76.61
2023-02-18T05:19:28.971Z,77.75
2023-02-18T05:21:57.070Z,78.50
2023-02-18T05:24:25.095Z,79.66
2023-02-18T05:26:53.436Z,80.07
2023-02-18T05:29:21.523Z,79.79
2023-02-18T05:31:49.765Z,79.75
2023-02-18T05:34:17.814Z,80.30
2023-02-18T05:36:47.238Z,79.92
2023-02-18T05:39:15.425Z,80.15
2023-02-18T05:41:43.568Z,80.24
2023-02-18T05:44:29.288Z,81.06
2023-02-18T05:46:57.745Z,80.70
2023-02-18T05:49:26.124Z,80.88
2023-02-18T05:51:55.963Z,82.54
2023-02-18T05:54:24.648Z,82.91
2023-02-18T05:56:53.517Z,83.13
2023-02-18T05:59:21.983Z,83.79
2023-02-18T06:01:50.363Z,83.93
2023-02-18T06:04:18.803Z,83.22
2023-02-18T06:06:46.961Z,83.35
2023-02-18T06:09:16.407Z,84.50
2023-02-18T06:11:44.708Z,84.32
2023-02-18T06:14:12.891Z,84.45
2023-02-18T06:16:41.201Z,84.68
2023-02-18T06:19:09.333Z,84.56
2023-02-18T06:21:37.757Z,85.56
2023-02-18T06:24:06.337Z,85.22
2023-02-18T06:26:35.968Z,85.20
2023-02-18T06:29:05.063Z,85.82
2023-02-18T06:31:33.211Z,85.09
2023-02-18T06:34:01.089Z,85.34
2023-02-18T06:36:29.083Z,85.78
2023-02-18T06:38:57.617Z,85.94
2023-02-18T06:41:25.682Z,86.27
2023-02-18T06:43:55.447Z,86.15
2023-02-18T06:46:23.557Z,86.17
2023-02-18T06:48:51.724Z,86.05
2023-02-18T06:51:19.722Z,86.86
2023-02-18T06:53:47.709Z,86.72
2023-02-18T06:56:16.205Z,87.30
2023-02-18T06:58:44.480Z,87.48
2023-02-18T07:01:14.025Z,87.19
2023-02-18T07:03:42.184Z,86.76
2023-02-18T07:06:10.559Z,87.23
2023-02-18T07:08:39.194Z,87.44
2023-02-18T07:11:08.548Z,87.42
2023-02-18T07:13:36.669Z,86.89
2023-02-18T07:16:05.514Z,87.17
2023-02-18T07:18:34.957Z,87.73
2023-02-18T07:21:03.515Z,87.90
2023-02-18T07:23:31.792Z,88.09
2023-02-18T07:26:08.323Z,88.55
2023-02-18T07:28:36.602Z,88.58
2023-02-18T07:31:05.286Z,89.10
2023-02-18T07:33:34.898Z,88.90
2023-02-18T07:36:04.165Z,88.43
2023-02-18T07:38:32.686Z,89.04
2023-02-18T07:41:01.034Z,88.21
2023-02-18T07:43:29.094Z,88.68
2023-02-18T07:45:57.343Z,88.17
2023-02-18T07:48:25.458Z,88.43
2023-02-18T07:50:54.845Z,88.41
2023-02-18T07:53:23.328Z,88.06
2023-02-18T07:55:51.475Z,87.95
2023-02-18T07:58:20.785Z,87.93
2023-02-18T08:00:50.576Z,88.68
2023-02-18T08:03:19.697Z,88.15
2023-02-18T08:05:50.046Z,87.72
2023-02-18T08:08:23.256Z,87.72
2023-02-18T08:10:52.537Z,87.15
2023-02-18T08:13:20.845Z,87.22
2023-02-18T08:15:49.013Z,86.67
2023-02-18T08:18:19.800Z,86.02
2023-02-18T08:20:49.043Z,86.37
2023-02-18T08:23:20.237Z,86.24
2023-02-18T08:25:50.273Z,86.47
2023-02-18T08:28:19.334Z,85.90
2023-02-18T08:30:49.095Z,86.24
2023-02-18T08:33:18.180Z,86.55
2023-02-18T08:35:47.898Z,86.92
2023-02-18T08:38:16.628Z,87.14
2023-02-18T08:40:46.520Z,86.91
2023-02-18T08:43:15.592Z,86.79
2023-02-18T08:45:45.032Z,86.70
2023-02-18T08:48:20.514Z,85.86
2023-02-18T08:50:49.575Z,86.62
2023-02-18T08:53:17.716Z,87.28
2023-02-18T08:55:47.442Z,86.99
2023-02-18T08:58:15.818Z,87.60
2023-02-18T09:00:45.180Z,87.83
2023-02-18T09:03:14.522Z,88.81
2023-02-18T09:05:43.070Z,88.99
2023-02-18T09:08:11.505Z,88.40
2023-02-18T09:10:39.815Z,87.60
2023-02-18T09:13:09.420Z,88.51
2023-02-18T09:15:37.566Z,88.81
2023-02-18T09:18:05.883Z,88.71
2023-02-18T09:20:34.209Z,88.82
2023-02-18T09:23:03.782Z,89.69
2023-02-18T09:25:32.063Z,90.10
2023-02-18T09:28:00.543Z,90.09
2023-02-18T09:30:30.385Z,90.38
2023-02-18T09:32:58.667Z,90.40
2023-02-18T09:35:26.708Z,90.71
2023-02-18T09:37:54.925Z,89.94
2023-02-18T09:40:28.782Z,90.27
2023-02-18T09:42:58.200Z,90.19
2023-02-18T09:45:27.066Z,90.05
2023-02-18T09:47:57.092Z,90.40
2023-02-18T09:50:28.726Z,90.45
2023-02-18T09:52:59.800Z,90.76
2023-02-18T09:55:31.677Z,90.28
2023-02-18T09:58:03.880Z,89.71
2023-02-18T10:00:35.479Z,89.78
2023-02-18T10:03:08.407Z,89.90
2023-02-18T10:05:39.140Z,89.64
2023-02-18T10:08:16.043Z,89.17
2023-02-18T10:10:48.745Z,88.60
2023-02-18T10:15:50.123Z,87.41
2023-02-18T10:18:27.356Z,86.53
2023-02-18T10:21:02.282Z,85.95
2023-02-18T10:23:32.819Z,85.09
2023-02-18T10:26:03.884Z,84.68
2023-02-18T10:28:32.966Z,84.43
2023-02-18T10:31:08.598Z,84.48
2023-02-18T10:33:47.410Z,84.00
2023-02-18T10:36:25.979Z,83.83
2023-02-18T10:39:09.177Z,83.38
2023-02-18T10:41:47.328Z,82.98
2023-02-18T10:44:23.623Z,82.68
2023-02-18T10:47:01.415Z,81.91
2023-02-18T10:49:48.996Z,81.63
2023-02-18T10:52:18.870Z,81.13
2023-02-18T10:54:52.637Z,80.97
2023-02-18T10:57:22.218Z,80.87
2023-02-18T10:59:57.958Z,81.32
2023-02-18T11:02:30.783Z,81.36
2023-02-18T11:05:07.148Z,81.57
2023-02-18T11:07:39.757Z,80.68
2023-02-18T11:10:18.472Z,79.92
2023-02-18T11:12:49.550Z,79.78
2023-02-18T11:15:21.695Z,79.31
2023-02-18T11:17:51.448Z,79.48
2023-02-18T11:20:31.382Z,79.34
2023-02-18T11:23:16.028Z,79.47
2023-02-18T11:25:55.912Z,79.82
2023-02-18T11:28:32.145Z,79.46
2023-02-18T11:31:05.308Z,79.62
2023-02-18T11:33:36.752Z,78.96
2023-02-18T11:36:18.808Z,78.74
2023-02-18T11:38:52.127Z,78.89
2023-02-18T11:41:23.346Z,78.75
2023-02-18T11:43:55.295Z,78.97
2023-02-18T11:46:26.910Z,79.15
2023-02-18T11:48:55.890Z,78.20
2023-02-18T11:51:29.696Z,77.54
2023-02-18T11:54:03.072Z,77.44
2023-02-18T11:56:34.446Z,77.24
2023-02-18T11:59:04.915Z,77.53
2023-02-18T12:01:47.912Z,77.86
2023-02-18T12:04:18.652Z,77.74
2023-02-18T12:06:53.863Z,77.73
2023-02-18T12:09:29.978Z,77.01
2023-02-18T12:12:01.727Z,77.17
2023-02-18T12:14:30.408Z,77.19
2023-02-18T12:17:16.977Z,76.79
2023-02-18T12:19:59.452Z,76.44
2023-02-18T12:22:42.867Z,76.92
2023-02-18T12:25:25.086Z,76.57
2023-02-18T12:28:04.367Z,76.60
2023-02-18T12:30:44.785Z,77.03
2023-02-18T12:33:23.365Z,76.75
2023-02-18T12:36:01.485Z,76.61
2023-02-18T12:38:54.547Z,76.07
2023-02-18T12:41:34.224Z,75.44
2023-02-18T12:44:11.561Z,74.40
2023-02-18T12:47:02.168Z,74.06
2023-02-18T12:49:49.970Z,74.39
2023-02-18T12:52:33.542Z,74.33
2023-02-18T12:55:28.740Z,73.39
2023-02-18T12:58:07.701Z,73.00
2023-02-18T13:00:59.071Z,72.64
2023-02-18T13:03:55.940Z,72.59
2023-02-18T13:06:43.669Z,73.33
2023-02-18T13:09:25.209Z,72.93
2023-02-18T13:12:01.435Z,72.91
2023-02-18T13:14:33.176Z,72.70
2023-02-18T13:17:05.138Z,73.48
2023-02-18T13:19:35.686Z,72.89
2023-02-18T13:22:07.550Z,73.26
2023-02-18T13:24:37.690Z,73.22
2023-02-18T13:27:17.658Z,73.29
2023-02-18T13:29:51.799Z,72.90
2023-02-18T13:32:27.602Z,72.77
2023-02-18T13:35:02.001Z,72.41
2023-02-18T13:37:38.714Z,72.29
2023-02-18T13:40:19.687Z,72.36
2023-02-18T13:42:52.314Z,72.64
2023-02-18T13:45:30.285Z,73.37
2023-02-18T13:47:59.588Z,73.53
2023-02-18T13:50:34.186Z,73.55
2023-02-18T13:53:23.415Z,72.96
2023-02-18T13:55:59.157Z,72.78
2023-02-18T13:58:33.708Z,71.46
2023-02-18T14:01:05.171Z,71.90
2023-02-18T14:03:38.211Z,71.43
2023-02-18T14:06:17.983Z,71.29
2023-02-18T14:08:46.861Z,70.26
2023-02-18T14:11:42.187Z,71.33
2023-02-18T14:14:36.129Z,71.58
2023-02-18T14:17:30.646Z,71.57
2023-02-18T14:20:33.743Z,71.68
2023-02-18T14:23:02.246Z,71.20
2023-02-18T14:25:38.297Z,71.17
2023-02-18T14:28:41.499Z,71.20
2023-02-18T14:31:30.510Z,70.41
2023-02-18T14:34:35.479Z,71.49
2023-02-18T14:37:21.694Z,72.86
2023-02-18T14:40:03.864Z,72.58
2023-02-18T14:42:48.237Z,72.25
2023-02-18T14:45:28.104Z,72.18
2023-02-18T14:48:21.707Z,72.05
2023-02-18T14:50:52.976Z,71.80
2023-02-18T14:53:24.437Z,72.27
2023-02-18T14:55:56.683Z,72.27
2023-02-18T14:58:31.341Z,72.08
2023-02-18T15:00:59.999Z,71.90
2023-02-18T15:03:29.794Z,72.05
2023-02-18T15:05:58.010Z,72.07
2023-02-18T15:08:27.278Z,71.74
2023-02-18T15:11:00.871Z,71.05
2023-02-18T15:13:32.130Z,70.93
2023-02-18T15:16:04.151Z,71.67
2023-02-18T15:18:37.800Z,72.04
2023-02-18T15:21:08.729Z,71.24
2023-02-18T15:23:38.476Z,70.94
2023-02-18T15:26:09.829Z,71.33
2023-02-18T15:28:43.947Z,70.14
2023-02-18T15:31:15.271Z,69.76
2023-02-18T15:33:45.563Z,69.96
2023-02-18T15:36:15.921Z,69.95
2023-02-18T15:38:44.434Z,69.91
2023-02-18T15:41:15.074Z,69.95
2023-02-18T15:43:54.582Z,70.16
2023-02-18T15:46:26.285Z,70.46
2023-02-18T15:48:58.983Z,71.40
2023-02-18T15:51:30.837Z,71.29
2023-02-18T15:54:03.930Z,70.41
2023-02-18T15:56:35.182Z,69.85
2023-02-18T15:59:11.406Z,69.58
2023-02-18T16:01:39.775Z,70.17
2023-02-18T16:04:10.101Z,70.26
2023-02-18T16:06:40.516Z,70.40
2023-02-18T16:09:14.480Z,70.62
2023-02-18T16:11:46.025Z,70.67
2023-02-18T16:14:27.802Z,70.00
2023-02-18T16:17:07.754Z,70.15
2023-02-18T16:19:51.673Z,69.63
2023-02-18T16:22:38.271Z,69.50
2023-02-18T16:25:16.830Z,69.75
2023-02-18T16:27:50.999Z,69.64
2023-02-18T16:30:21.436Z,69.87
2023-02-18T16:32:49.533Z,69.95
2023-02-18T16:35:20.673Z,70.08
2023-02-18T16:37:50.622Z,70.50
2023-02-18T16:40:25.653Z,70.74
2023-02-18T16:42:54.833Z,70.62
2023-02-18T16:45:30.366Z,70.15
2023-02-18T16:47:58.935Z,70.38
2023-02-18T16:50:31.861Z,69.88
2023-02-18T16:53:01.324Z,69.53
2023-02-18T16:55:31.421Z,69.71
2023-02-18T16:57:59.645Z,69.54
2023-02-18T17:00:28.284Z,69.41
2023-02-18T17:02:59.759Z,68.74
2023-02-18T17:05:32.000Z,68.71
2023-02-18T17:08:08.018Z,69.20
2023-02-18T17:10:36.808Z,69.10
2023-02-18T17:13:05.303Z,69.55
2023-02-18T17:15:36.825Z,69.55
2023-02-18T17:18:05.658Z,69.04
2023-02-18T17:20:35.581Z,69.08
2023-02-18T17:23:04.058Z,69.58
2023-02-18T17:25:36.580Z,69.60
2023-02-18T17:28:05.778Z,69.56
2023-02-18T17:30:41.689Z,69.71
2023-02-18T17:33:16.007Z,69.71
2023-02-18T17:35:45.592Z,70.69
2023-02-18T17:38:14.816Z,70.43
2023-02-18T17:40:43.124Z,70.00
2023-02-18T17:43:13.890Z,69.71
2023-02-18T17:45:46.652Z,70.66
2023-02-18T17:48:14.630Z,70.61
2023-02-18T17:50:42.793Z,70.69
2023-02-18T17:53:13.166Z,70.74
2023-02-18T17:55:42.776Z,70.24
2023-02-18T17:58:11.202Z,70.60
2023-02-18T18:00:42.307Z,70.85
2023-02-18T18:03:12.696Z,71.08
2023-02-18T18:05:42.805Z,71.07
2023-02-18T18:08:12.836Z,71.31
2023-02-18T18:10:42.367Z,71.30
2023-02-18T18:13:16.971Z,70.39
2023-02-18T18:15:45.352Z,70.64
2023-02-18T18:18:15.096Z,70.93
2023-02-18T18:20:46.045Z,70.53
2023-02-18T18:23:17.434Z,70.90
2023-02-18T18:25:48.100Z,70.39
2023-02-18T18:28:16.421Z,70.43
2023-02-18T18:30:47.403Z,69.89
2023-02-18T18:33:19.008Z,70.63
2023-02-18T18:35:49.950Z,71.03
2023-02-18T18:38:24.418Z,70.57
2023-02-18T18:40:53.596Z,71.65
2023-02-18T18:43:23.181Z,71.52
2023-02-18T18:45:52.024Z,71.51
2023-02-18T18:48:21.183Z,71.42
2023-02-18T18:50:49.935Z,71.54
2023-02-18T18:53:21.490Z,71.42
2023-02-18T18:55:52.063Z,71.20
2023-02-18T18:58:24.298Z,70.80
2023-02-18T19:00:54.912Z,70.66
2023-02-18T19:03:24.381Z,71.10
2023-02-18T19:05:53.637Z,71.26
2023-02-18T19:08:22.562Z,70.81
2023-02-18T19:10:54.974Z,70.67
2023-02-18T19:13:24.966Z,70.56
2023-02-18T19:16:02.247Z,70.75
2023-02-18T19:18:32.418Z,71.15
2023-02-18T19:21:01.962Z,71.43
2023-02-18T19:23:30.201Z,71.83
2023-02-18T19:26:00.167Z,72.24
2023-02-18T19:28:29.065Z,72.09
2023-02-18T19:30:57.350Z,71.17
2023-02-18T19:33:25.504Z,71.67
2023-02-18T19:35:53.816Z,71.45
2023-02-18T19:38:21.886Z,71.86
2023-02-18T19:40:50.440Z,72.08
2023-02-18T19:43:20.116Z,72.03
2023-02-18T19:45:48.479Z,71.79
2023-02-18T19:48:17.040Z,72.03
2023-02-18T19:50:45.248Z,71.53
2023-02-18T19:53:13.421Z,71.37
2023-02-18T19:55:42.023Z,71.86
2023-02-18T19:58:10.798Z,72.18
2023-02-18T20:00:43.681Z,72.27
2023-02-18T20:03:11.726Z,71.91
2023-02-18T20:05:40.151Z,71.71
2023-02-18T20:08:08.339Z,71.11
2023-02-18T20:10:36.753Z,71.13
2023-02-18T20:13:10.448Z,70.96
2023-02-18T20:15:41.429Z,71.03
2023-02-18T20:18:09.410Z,71.03
2023-02-18T20:20:37.556Z,71.06
2023-02-18T20:23:06.698Z,71.63
2023-02-18T20:25:35.262Z,71.90
2023-02-18T20:28:03.664Z,71.23
2023-02-18T20:30:31.629Z,71.05
2023-02-18T20:33:01.033Z,71.42
2023-02-18T20:35:29.200Z,71.02
2023-02-18T20:37:57.182Z,71.12
2023-02-18T20:40:25.715Z,70.95
2023-02-18T20:42:53.822Z,70.65
2023-02-18T20:45:22.188Z,70.84
2023-02-18T20:47:50.242Z,71.15
2023-02-18T20:50:21.868Z,70.67
2023-02-18T20:52:49.954Z,70.72
2023-02-18T20:55:18.313Z,70.58
2023-02-18T20:57:46.501Z,70.54
2023-02-18T21:00:15.724Z,70.47
2023-02-18T21:02:43.802Z,70.51
2023-02-18T21:05:12.006Z,70.70
2023-02-18T21:07:41.380Z,70.93
2023-02-18T21:10:09.945Z,71.27
2023-02-18T21:12:37.883Z,71.36
2023-02-18T21:15:06.226Z,71.50
2023-02-18T21:17:34.487Z,72.02
2023-02-18T21:20:02.506Z,72.30
2023-02-18T21:22:30.532Z,73.13
2023-02-18T21:25:00.415Z,72.96
2023-02-18T21:27:28.345Z,73.46
2023-02-18T21:30:00.706Z,73.91
2023-02-18T21:32:28.721Z,73.33
2023-02-18T21:34:57.439Z,73.23
2023-02-18T21:37:25.838Z,73.23
2023-02-18T21:39:54.687Z,73.51
2023-02-18T21:42:25.669Z,73.40
2023-02-18T21:44:56.754Z,73.18
2023-02-18T21:47:25.063Z,73.38
2023-02-18T21:49:53.739Z,73.42
2023-02-18T21:52:22.696Z,73.25
2023-02-18T21:54:54.927Z,73.57
2023-02-18T21:57:26.388Z,73.33
2023-02-18T21:59:54.950Z,73.03
2023-02-18T22:02:25.557Z,72.91
2023-02-18T22:04:54.620Z,72.65
2023-02-18T22:07:25.625Z,72.87
2023-02-18T22:09:54.841Z,73.44
2023-02-18T22:12:25.133Z,72.93
2023-02-18T22:14:54.144Z,73.17
2023-02-18T22:17:22.579Z,73.34
2023-02-18T22:19:50.571Z,73.07
2023-02-18T22:22:18.660Z,73.51
2023-02-18T22:24:46.714Z,72.87
2023-02-18T22:27:14.711Z,73.13
2023-02-18T22:29:43.967Z,73.39
2023-02-18T22:32:12.009Z,72.79
2023-02-18T22:34:40.317Z,72.95
2023-02-18T22:37:08.513Z,72.93
2023-02-18T22:39:36.758Z,72.46
2023-02-18T22:42:05.018Z,72.60
2023-02-18T22:44:33.193Z,72.58
2023-02-18T22:47:02.563Z,73.08
2023-02-18T22:49:31.300Z,73.07
2023-02-18T22:51:59.135Z,73.01
2023-02-18T22:54:27.123Z,73.36
2023-02-18T22:56:55.615Z,73.64
2023-02-18T22:59:24.137Z,73.85
2023-02-18T23:01:53.077Z,74.60
2023-02-18T23:04:23.127Z,76.00
2023-02-18T23:06:52.045Z,76.43
2023-02-18T23:09:22.830Z,76.86
2023-02-18T23:11:52.524Z,76.51
2023-02-18T23:14:22.311Z,76.68
2023-02-18T23:17:10.709Z,77.13
2023-02-18T23:19:41.267Z,76.96
2023-02-18T23:22:10.920Z,77.44
2023-02-18T23:24:41.990Z,77.47
2023-02-18T23:27:13.344Z,78.17
2023-02-18T23:29:41.560Z,78.14
2023-02-18T23:32:10.111Z,78.35
2023-02-18T23:34:40.150Z,78.19
2023-02-18T23:37:08.225Z,78.44
2023-02-18T23:39:36.384Z,78.50
2023-02-18T23:42:05.179Z,78.72
2023-02-18T23:44:33.125Z,79.21
2023-02-18T23:47:01.199Z,80.60
2023-02-18T23:49:29.926Z,80.85
2023-02-18T23:51:59.381Z,80.38
2023-02-18T23:54:27.854Z,80.54
2023-02-18T23:56:56.052Z,79.73
2023-02-18T23:59:24.185Z,79.90
